Time;durP1;ratioP1;P1;durP2;ratioP2;P2;SDS_P1;SDS_P2;PMS_P1;PMS_P2;Temp;Humidity;BMP_temperature;BMP_pressure;BME280_temperature;BME280_humidity;BME280_pressure;Samples;Min_cycle;Max_cycle;Signal;HPM_P1;HPM_P2
2022/08/11 00:02:35;;;;;;;3.70;1.65;;;18.00;28.30;;;;;;5059848;28;20536;-50
2022/08/11 00:05:06;;;;;;;4.43;1.80;;;18.00;28.40;;;;;;5061435;28;20024;-50
2022/08/11 00:07:32;;;;;;;2.42;1.60;;;18.00;28.80;;;;;;5060749;28;20038;-52
2022/08/11 00:09:59;;;;;;;2.17;1.52;;;18.00;28.90;;;;;;5070233;28;20039;-51
2022/08/11 00:12:25;;;;;;;3.97;1.33;;;17.90;29.30;;;;;;5069669;28;20329;-52
2022/08/11 00:14:56;;;;;;;3.05;1.42;;;17.90;29.20;;;;;;5064031;28;20017;-51
2022/08/11 00:17:27;;;;;;;2.45;1.45;;;17.90;29.10;;;;;;5070723;28;20135;-54
2022/08/11 00:20:07;;;;;;;1.85;1.50;;;17.80;29.40;;;;;;5063128;28;20076;-55
2022/08/11 00:22:38;;;;;;;1.23;1.13;;;17.80;29.30;;;;;;5060368;28;20028;-50
2022/08/11 00:25:22;;;;;;;1.98;1.40;;;17.70;29.30;;;;;;5055712;28;20035;-53
2022/08/11 00:27:48;;;;;;;3.47;1.30;;;17.70;30.20;;;;;;5062084;28;20036;-47
2022/08/11 00:30:14;;;;;;;3.05;1.30;;;17.60;30.10;;;;;;5075498;28;20031;-50
2022/08/11 00:32:43;;;;;;;2.97;1.35;;;17.60;30.40;;;;;;5062769;28;20123;-51
2022/08/11 00:35:16;;;;;;;3.95;2.10;;;17.60;30.60;;;;;;5067793;28;20625;-52
2022/08/11 00:37:48;;;;;;;1.40;1.30;;;17.50;31.10;;;;;;5067169;28;20029;-50
2022/08/11 00:40:23;;;;;;;1.50;1.30;;;17.40;32.30;;;;;;5069646;28;20439;-49
2022/08/11 00:43:11;;;;;;;1.77;1.50;;;17.40;32.50;;;;;;5061255;28;20062;-51
2022/08/11 00:45:45;;;;;;;2.38;1.35;;;17.40;33.60;;;;;;5055584;28;20033;-50
2022/08/11 00:48:26;;;;;;;3.95;1.60;;;17.30;32.70;;;;;;5063796;28;20028;-54
2022/08/11 00:51:20;;;;;;;3.67;1.33;;;17.30;34.50;;;;;;5060442;28;20040;-53
2022/08/11 00:54:26;;;;;;;3.47;1.48;;;17.20;33.80;;;;;;5070323;28;20024;-52
2022/08/11 00:57:31;;;;;;;1.40;1.30;;;17.20;33.80;;;;;;5069962;28;20035;-50
2022/08/11 01:00:15;;;;;;;2.65;1.50;;;17.10;36.60;;;;;;5065270;28;20025;-52
2022/08/11 01:02:56;;;;;;;3.10;1.35;;;17.00;36.00;;;;;;5069017;28;20032;-50
2022/08/11 01:05:33;;;;;;;2.63;1.45;;;17.10;35.10;;;;;;5066153;28;20028;-53
2022/08/11 01:08:30;;;;;;;4.20;1.60;;;17.00;34.70;;;;;;5062208;28;20070;-52
2022/08/11 01:11:15;;;;;;;2.13;1.20;;;17.00;37.30;;;;;;5046872;28;20040;-49
2022/08/11 01:14:05;;;;;;;4.47;1.70;;;16.90;36.00;;;;;;5079636;28;20071;-54
2022/08/11 01:16:59;;;;;;;2.15;1.58;;;16.90;37.10;;;;;;5056100;28;20032;-54
2022/08/11 01:20:07;;;;;;;1.70;1.23;;;16.80;37.60;;;;;;5070186;28;20036;-53
2022/08/11 01:22:45;;;;;;;1.73;1.30;;;16.80;38.70;;;;;;5024452;28;20128;-54
2022/08/11 01:25:41;;;;;;;5.57;1.83;;;16.80;37.70;;;;;;5045696;28;20466;-50
2022/08/11 01:28:36;;;;;;;2.23;1.60;;;16.70;39.50;;;;;;5065614;28;20036;-53
2022/08/11 01:31:48;;;;;;;2.90;1.70;;;16.70;40.20;;;;;;5068072;28;20361;-53
2022/08/11 01:34:25;;;;;;;3.53;1.63;;;16.70;40.10;;;;;;5045992;28;20077;-54
2022/08/11 01:36:57;;;;;;;3.53;1.95;;;16.60;40.30;;;;;;5062214;28;20020;-53
2022/08/11 01:39:48;;;;;;;2.55;1.58;;;16.60;39.00;;;;;;5069333;28;20031;-52
2022/08/11 01:46:20;;;;;;;2.22;1.50;;;16.50;42.00;;;;;;5049310;28;20047;-51
2022/08/11 01:48:57;;;;;;;3.25;1.50;;;16.40;39.90;;;;;;5049334;28;20041;-49
2022/08/11 01:52:05;;;;;;;1.83;1.40;;;16.40;39.90;;;;;;5053304;28;20020;-54
2022/08/11 01:55:08;;;;;;;3.40;1.70;;;16.30;41.70;;;;;;5048911;28;20037;-53
2022/08/11 01:57:37;;;;;;;3.95;1.80;;;16.20;43.30;;;;;;5053907;28;20036;-51
2022/08/11 02:00:14;;;;;;;2.35;1.40;;;16.20;41.00;;;;;;5069024;28;20028;-50
2022/08/11 02:02:46;;;;;;;1.48;1.38;;;16.10;41.00;;;;;;5059181;28;20408;-51
2022/08/11 02:05:45;;;;;;;1.85;1.42;;;16.00;41.50;;;;;;5048936;28;20021;-50
2022/08/11 02:08:22;;;;;;;4.43;1.40;;;16.00;45.10;;;;;;5067918;28;20021;-52
2022/08/11 02:13:55;;;;;;;3.65;1.73;;;15.90;42.80;;;;;;5055813;28;20399;-50
2022/08/11 02:16:27;;;;;;;3.65;1.63;;;15.80;43.30;;;;;;5086993;28;20489;-52
2022/08/11 02:25:03;;;;;;;3.95;1.73;;;15.70;45.70;;;;;;5088826;28;20034;-48
2022/08/11 02:27:44;;;;;;;2.45;1.40;;;15.70;45.70;;;;;;5069277;28;20074;-57
2022/08/11 02:30:13;;;;;;;3.20;1.67;;;15.70;46.60;;;;;;5055326;28;20036;-56
2022/08/11 02:33:22;;;;;;;2.85;1.98;;;15.70;46.00;;;;;;5087010;28;20032;-60
2022/08/11 02:36:07;;;;;;;3.35;2.08;;;15.70;47.50;;;;;;5048653;28;20033;-61
2022/08/11 02:38:51;;;;;;;2.97;1.95;;;15.70;46.70;;;;;;5066907;28;20277;-61
2022/08/11 02:44:59;;;;;;;2.53;1.98;;;15.60;49.30;;;;;;5092665;28;20043;-61
2022/08/11 02:51:00;;;;;;;5.13;1.90;;;15.50;47.30;;;;;;5052410;28;20040;-61
2022/08/11 02:53:57;;;;;;;4.95;1.70;;;15.50;47.90;;;;;;5068673;28;20032;-60
2022/08/11 02:56:43;;;;;;;4.50;1.40;;;15.50;50.00;;;;;;5089576;28;20032;-61
2022/08/11 03:02:07;;;;;;;3.20;1.60;;;15.40;48.40;;;;;;5063585;28;20090;-61
2022/08/11 03:05:00;;;;;;;4.38;1.70;;;15.30;48.10;;;;;;5091901;28;20024;-61
2022/08/11 03:07:51;;;;;;;2.60;1.50;;;15.30;51.00;;;;;;5069294;28;20035;-60
2022/08/11 03:10:44;;;;;;;2.33;1.83;;;15.30;50.00;;;;;;5051662;28;20029;-61
2022/08/11 03:16:45;;;;;;;4.00;2.10;;;15.20;52.80;;;;;;5092155;28;20094;-61
2022/08/11 03:19:29;;;;;;;4.03;2.13;;;15.20;53.70;;;;;;5091545;28;20392;-61
2022/08/11 03:22:13;;;;;;;2.20;1.75;;;15.20;51.60;;;;;;5058206;28;20032;-61
2022/08/11 03:25:02;;;;;;;1.55;1.40;;;15.10;52.90;;;;;;5091591;28;20027;-61
2022/08/11 03:27:35;;;;;;;5.25;2.00;;;15.10;51.90;;;;;;5068470;28;20031;-60
2022/08/11 03:30:33;;;;;;;4.07;2.10;;;15.00;52.00;;;;;;5055478;28;20049;-60
2022/08/11 03:36:45;;;;;;;4.47;1.90;;;15.00;52.20;;;;;;5051470;28;20496;-61
2022/08/11 03:39:48;;;;;;;2.88;2.00;;;14.90;52.50;;;;;;5050230;28;20029;-61
2022/08/11 03:42:51;;;;;;;3.35;1.85;;;14.90;54.30;;;;;;5086149;28;20032;-61
2022/08/11 03:45:25;;;;;;;3.35;2.17;;;14.90;54.30;;;;;;5049627;28;20036;-60
2022/08/11 03:48:05;;;;;;;3.50;1.92;;;14.90;53.10;;;;;;5061086;28;20085;-61
2022/08/11 03:51:01;;;;;;;3.03;1.80;;;14.80;53.60;;;;;;5050831;28;20029;-61
2022/08/11 03:53:53;;;;;;;2.33;1.75;;;14.80;55.50;;;;;;5065925;28;20033;-61
2022/08/11 03:56:48;;;;;;;5.00;1.70;;;14.70;57.30;;;;;;5050796;28;20029;-61
2022/08/11 04:00:02;;;;;;;3.20;1.90;;;14.80;55.20;;;;;;5070709;28;20017;-61
2022/08/11 04:02:55;;;;;;;5.00;2.13;;;14.80;58.30;;;;;;5065575;28;20043;-61
2022/08/11 04:05:45;;;;;;;4.45;2.58;;;14.80;55.00;;;;;;5050585;28;20520;-61
2022/08/11 04:08:30;;;;;;;7.25;2.78;;;14.80;60.40;;;;;;5064342;28;20021;-62
2022/08/11 04:11:25;;;;;;;4.00;1.85;;;14.80;56.50;;;;;;5050868;28;20098;-61
2022/08/11 04:17:49;;;;;;;4.03;1.58;;;14.90;55.80;;;;;;5060325;28;20089;-61
2022/08/11 04:20:36;;;;;;;5.88;2.75;;;15.00;56.90;;;;;;5089580;28;20016;-62
2022/08/11 04:23:32;;;;;;;3.05;2.03;;;15.00;55.50;;;;;;5076050;28;20047;-61
2022/08/11 04:26:32;;;;;;;3.63;1.85;;;15.10;54.50;;;;;;5050389;28;20021;-61
2022/08/11 04:29:25;;;;;;;3.38;1.77;;;15.10;55.40;;;;;;5070483;28;20111;-62
2022/08/11 04:32:09;;;;;;;2.70;2.08;;;15.20;55.20;;;;;;5053059;28;20048;-61
2022/08/11 04:35:11;;;;;;;3.88;1.80;;;15.50;54.60;;;;;;5090595;28;20040;-62
2022/08/11 04:38:04;;;;;;;2.05;1.70;;;16.30;52.60;;;;;;5065363;28;20041;-62
2022/08/11 04:40:54;;;;;;;3.35;1.60;;;17.30;49.10;;;;;;5049994;28;20560;-62
2022/08/11 04:44:06;;;;;;;2.20;1.85;;;18.20;42.50;;;;;;5063087;28;20502;-62
2022/08/11 04:47:09;;;;;;;4.45;2.10;;;19.00;40.50;;;;;;5050184;28;20029;-63
2022/08/11 05:02:20;;;;;;;3.40;1.92;;;22.90;26.40;;;;;;5055563;28;20118;-60
2022/08/11 05:08:03;;;;;;;4.22;1.92;;;24.00;22.40;;;;;;5066908;28;20597;-61
2022/08/11 05:10:59;;;;;;;3.15;1.75;;;24.50;22.70;;;;;;5049786;28;20540;-60
2022/08/11 05:36:37;;;;;;;3.53;2.05;;;28.70;8.80;;;;;;5049766;28;20032;-60
2022/08/11 05:58:37;;;;;;;2.85;1.83;;;31.50;3.60;;;;;;5062070;28;20046;-61
2022/08/11 06:01:03;;;;;;;2.05;1.65;;;31.90;2.10;;;;;;5089184;28;20028;-61
2022/08/11 06:03:31;;;;;;;5.68;2.35;;;32.50;1.20;;;;;;5066391;28;20098;-61
2022/08/11 06:05:58;;;;;;;2.83;1.92;;;32.50;1.00;;;;;;5088933;28;20028;-61
2022/08/11 06:08:34;;;;;;;3.42;1.98;;;32.70;1.00;;;;;;5067646;28;20090;-60
2022/08/11 06:11:04;;;;;;;2.08;1.88;;;32.60;1.00;;;;;;5069204;28;20060;-59
2022/08/11 06:13:31;;;;;;;3.25;2.30;;;32.50;1.00;;;;;;5070592;28;20081;-61
2022/08/11 06:15:57;;;;;;;4.35;2.35;;;32.00;1.00;;;;;;5073004;28;20020;-61
2022/08/11 06:18:24;;;;;;;2.33;2.10;;;32.30;1.00;;;;;;5072922;28;20055;-61
2022/08/11 06:20:55;;;;;;;1.90;1.75;;;32.60;1.00;;;;;;5072795;28;20039;-61
2022/08/11 06:23:22;;;;;;;2.45;2.17;;;33.40;1.00;;;;;;5072921;28;20033;-61
2022/08/11 06:25:50;;;;;;;5.10;2.75;;;34.10;1.00;;;;;;5072748;28;20051;-61
2022/08/11 06:28:19;;;;;;;2.53;2.33;;;34.30;1.00;;;;;;5072652;28;20025;-61
2022/08/11 06:30:45;;;;;;;2.70;2.35;;;34.20;1.00;;;;;;5072561;28;20043;-61
2022/08/11 06:33:19;;;;;;;2.70;2.40;;;34.50;1.00;;;;;;5072510;28;20097;-61
2022/08/11 06:36:03;;;;;;;2.10;1.85;;;34.70;1.00;;;;;;5072664;28;20462;-61
2022/08/11 06:39:05;;;;;;;6.55;2.15;;;35.70;1.00;;;;;;5072480;28;20674;-60
2022/08/11 06:41:52;;;;;;;6.03;2.10;;;36.60;1.00;;;;;;5084899;28;20036;-63
2022/08/11 06:44:31;;;;;;;4.60;2.75;;;36.80;1.00;;;;;;5066062;28;20028;-62
2022/08/11 06:47:06;;;;;;;3.17;1.80;;;35.50;1.00;;;;;;5071457;28;20126;-63
2022/08/11 06:52:32;;;;;;;6.65;2.10;;;36.20;1.00;;;;;;5071277;28;20039;-63
2022/08/11 06:55:05;;;;;;;4.72;2.05;;;36.30;1.00;;;;;;5071824;28;20021;-62
2022/08/11 07:00:29;;;;;;;1.80;1.70;;;37.20;1.00;;;;;;5072375;28;20032;-62
2022/08/11 07:03:12;;;;;;;3.40;2.15;;;37.60;1.00;;;;;;5072303;28;20048;-63
2022/08/11 07:05:52;;;;;;;2.40;1.98;;;37.60;1.00;;;;;;5072195;28;20107;-62
2022/08/11 07:28:54;;;;;;;4.63;2.10;;;37.10;1.00;;;;;;5071930;28;20090;-62
2022/08/11 07:29:11;;;;;;;4.82;1.80;;;36.50;1.00;;;;;;5071364;28;20049;-62
2022/08/11 07:31:50;;;;;;;3.63;2.00;;;37.50;1.00;;;;;;5071262;28;20045;-63
2022/08/11 07:34:27;;;;;;;2.53;2.03;;;38.40;1.00;;;;;;5071165;28;20033;-62
2022/08/11 07:36:58;;;;;;;4.47;1.85;;;39.30;1.00;;;;;;5071247;28;20032;-63
2022/08/11 07:39:36;;;;;;;4.97;2.00;;;39.00;1.00;;;;;;5071106;28;20071;-63
2022/08/11 07:42:11;;;;;;;3.90;1.85;;;39.00;1.00;;;;;;5070995;28;20033;-62
2022/08/11 07:52:58;;;;;;;1.63;1.52;;;38.70;1.00;;;;;;5071136;28;20043;-63
2022/08/11 07:55:24;;;;;;;2.50;1.90;;;39.20;1.00;;;;;;5073145;28;20025;-63
2022/08/11 08:20:02;;;;;;;2.47;1.83;;;36.50;1.00;;;;;;5050425;28;20032;-63
2022/08/11 08:22:28;;;;;;;3.08;1.75;;;36.70;1.00;;;;;;5050272;28;20449;-63
2022/08/11 08:24:55;;;;;;;2.17;1.42;;;37.10;1.00;;;;;;5050404;28;20083;-63
2022/08/11 08:27:21;;;;;;;2.35;1.35;;;36.80;1.00;;;;;;5050182;28;20033;-63
2022/08/11 08:32:37;;;;;;;1.58;1.48;;;36.70;1.00;;;;;;5050133;28;20032;-72
2022/08/11 08:35:04;;;;;;;2.28;1.50;;;36.90;1.00;;;;;;5050075;28;20117;-71
2022/08/11 08:37:31;;;;;;;2.85;1.55;;;36.00;1.00;;;;;;5048229;28;20033;-58
2022/08/11 08:39:57;;;;;;;1.95;1.77;;;36.10;1.00;;;;;;5049902;28;20393;-58
2022/08/11 08:42:31;;;;;;;3.17;1.75;;;35.80;1.00;;;;;;5032285;28;20126;-58
2022/08/11 08:45:18;;;;;;;2.63;1.90;;;34.80;1.00;;;;;;5033101;28;20040;-58
2022/08/11 08:47:53;;;;;;;1.77;1.40;;;34.90;1.00;;;;;;5049635;28;20260;-58
2022/08/11 08:50:22;;;;;;;4.30;1.85;;;34.80;1.00;;;;;;5048604;28;20082;-58
2022/08/11 08:53:02;;;;;;;2.50;2.08;;;33.80;1.00;;;;;;5049717;28;20523;-58
2022/08/11 08:55:29;;;;;;;5.15;1.90;;;32.90;1.00;;;;;;5049817;28;20096;-57
2022/08/11 08:57:59;;;;;;;3.28;1.70;;;32.40;1.00;;;;;;5049692;28;20021;-57
2022/08/11 09:00:37;;;;;;;3.20;1.73;;;32.60;1.00;;;;;;5049506;28;20028;-57
2022/08/11 09:03:03;;;;;;;2.90;1.70;;;32.90;1.00;;;;;;5049679;28;20029;-58
2022/08/11 09:05:29;;;;;;;2.22;2.03;;;32.80;1.00;;;;;;5049555;28;20031;-58
2022/08/11 09:07:56;;;;;;;1.98;1.70;;;32.50;1.00;;;;;;5049544;28;20033;-57
2022/08/11 09:10:24;;;;;;;2.45;1.88;;;32.80;1.00;;;;;;5048329;28;20036;-58
2022/08/11 09:12:50;;;;;;;1.90;1.50;;;32.80;1.00;;;;;;5049664;28;20025;-59
2022/08/11 09:15:17;;;;;;;1.70;1.60;;;32.90;1.00;;;;;;5049412;28;20062;-58
2022/08/11 09:17:49;;;;;;;2.28;1.67;;;33.30;1.00;;;;;;5049392;28;20025;-55
2022/08/11 09:20:23;;;;;;;1.95;1.60;;;33.60;1.00;;;;;;5064809;28;20026;-58
2022/08/11 09:28:21;;;;;;;3.00;2.25;;;32.90;1.00;;;;;;5049359;28;20060;-58
2022/08/11 09:30:54;;;;;;;1.63;1.52;;;32.50;1.00;;;;;;5048968;28;20049;-59
2022/08/11 09:33:22;;;;;;;4.80;1.95;;;32.70;1.00;;;;;;5064657;28;20033;-58
2022/08/11 09:35:49;;;;;;;3.30;1.95;;;32.30;1.00;;;;;;5049478;28;20039;-58
2022/08/11 09:41:04;;;;;;;1.63;1.52;;;32.00;1.00;;;;;;5066946;28;20039;-57
2022/08/11 09:46:15;;;;;;;4.00;1.60;;;33.00;1.00;;;;;;5067178;28;20071;-58
2022/08/11 09:48:44;;;;;;;2.53;1.63;;;33.30;1.00;;;;;;5070532;28;20041;-58
2022/08/11 09:51:10;;;;;;;3.83;1.88;;;33.50;1.00;;;;;;5070453;28;20021;-58
2022/08/11 09:53:41;;;;;;;2.58;1.58;;;33.20;1.00;;;;;;5072810;28;20032;-58
2022/08/11 09:58:58;;;;;;;3.03;2.03;;;33.00;1.00;;;;;;5070338;28;20026;-58
2022/08/11 10:01:29;;;;;;;2.75;1.85;;;33.20;1.00;;;;;;5073152;28;20021;-58
2022/08/11 10:04:07;;;;;;;2.15;1.67;;;33.40;1.00;;;;;;5073163;28;20075;-58
2022/08/11 10:09:24;;;;;;;2.75;1.65;;;33.20;1.00;;;;;;5073376;28;20034;-58
2022/08/11 10:11:55;;;;;;;2.05;1.60;;;32.90;1.00;;;;;;5071829;28;20032;-58
2022/08/11 10:17:08;;;;;;;2.28;1.67;;;32.80;1.00;;;;;;5073133;28;20087;-57
2022/08/11 10:19:38;;;;;;;4.35;2.17;;;32.50;1.00;;;;;;5071611;28;20498;-58
2022/08/11 10:27:38;;;;;;;2.17;1.70;;;30.80;1.00;;;;;;5060948;28;20391;-55
2022/08/11 10:35:34;;;;;;;3.90;1.88;;;29.60;1.00;;;;;;5089674;28;19961;-54
2022/08/11 10:38:00;;;;;;;8.30;2.15;;;29.70;1.00;;;;;;5089144;28;20732;-58
2022/08/11 10:40:27;;;;;;;2.63;1.80;;;29.70;1.00;;;;;;5088409;28;20032;-55
2022/08/11 10:43:01;;;;;;;2.70;1.98;;;29.60;1.00;;;;;;5089332;28;20165;-57
2022/08/11 10:48:25;;;;;;;2.33;1.55;;;29.60;1.00;;;;;;5049319;28;20060;-57
2022/08/11 10:59:14;;;;;;;3.28;1.70;;;29.20;1.00;;;;;;5047574;28;20049;-57
2022/08/11 11:01:42;;;;;;;2.80;1.95;;;29.10;1.00;;;;;;5048153;28;20083;-58
2022/08/11 11:04:21;;;;;;;3.13;1.98;;;29.00;1.00;;;;;;5087814;28;20028;-58
2022/08/11 11:07:12;;;;;;;4.90;1.67;;;28.90;1.00;;;;;;5088746;28;20468;-58
2022/08/11 11:09:47;;;;;;;2.25;2.00;;;28.90;1.00;;;;;;5048944;28;20032;-57
2022/08/11 11:18:00;;;;;;;4.93;1.75;;;28.90;1.00;;;;;;5088791;28;20035;-56
2022/08/11 11:20:34;;;;;;;3.42;1.60;;;29.00;1.00;;;;;;5063664;28;20522;-57
2022/08/11 11:23:15;;;;;;;4.50;1.70;;;29.10;1.00;;;;;;5047884;28;20025;-55
2022/08/11 11:26:13;;;;;;;5.13;1.60;;;28.90;1.00;;;;;;5068539;28;20035;-57
2022/08/11 11:29:19;;;;;;;1.77;1.52;;;28.60;1.00;;;;;;5046719;28;20029;-57
2022/08/11 11:31:52;;;;;;;5.78;1.67;;;28.70;1.00;;;;;;5062666;28;20135;-57
2022/08/11 11:34:45;;;;;;;2.90;1.80;;;28.50;1.00;;;;;;5067528;28;20036;-56
2022/08/11 11:37:13;;;;;;;2.13;1.40;;;28.30;1.00;;;;;;5067500;28;20047;-56
2022/08/11 11:39:39;;;;;;;4.32;1.60;;;28.40;1.00;;;;;;5085648;28;20047;-56
2022/08/11 11:42:07;;;;;;;3.38;1.65;;;28.50;1.00;;;;;;5087970;28;20059;-56
2022/08/11 11:44:36;;;;;;;2.58;2.03;;;28.50;1.00;;;;;;5066893;28;20054;-57
2022/08/11 11:47:02;;;;;;;5.13;1.80;;;28.40;1.00;;;;;;5087655;28;20020;-55
2022/08/11 11:49:31;;;;;;;3.35;1.45;;;28.40;1.00;;;;;;5066109;28;20033;-56
2022/08/11 11:51:58;;;;;;;3.13;1.40;;;28.40;1.00;;;;;;5082467;28;20726;-57
2022/08/11 11:54:29;;;;;;;2.45;1.10;;;28.30;1.00;;;;;;5067668;28;20040;-57
2022/08/11 11:56:57;;;;;;;2.80;1.17;;;28.50;1.00;;;;;;5066041;28;20032;-57
2022/08/11 12:02:13;;;;;;;2.40;1.50;;;28.60;1.00;;;;;;5087155;28;20543;-57
2022/08/11 12:04:41;;;;;;;3.00;1.45;;;28.40;1.00;;;;;;5067372;28;20059;-54
2022/08/11 12:09:54;;;;;;;3.95;1.50;;;28.20;1.00;;;;;;5052899;28;20093;-58
2022/08/11 12:15:06;;;;;;;3.58;1.13;;;28.30;1.00;;;;;;5056001;28;20070;-56
2022/08/11 12:17:34;;;;;;;3.45;1.08;;;28.30;1.00;;;;;;5088159;28;20039;-56
2022/08/11 12:20:01;;;;;;;1.23;1.00;;;28.30;1.00;;;;;;5068915;28;20093;-58
2022/08/11 12:27:55;;;;;;;4.63;1.10;;;28.20;1.00;;;;;;5087969;28;20416;-57
2022/08/11 12:30:21;;;;;;;1.92;1.55;;;28.10;1.00;;;;;;5070878;28;20040;-59
2022/08/11 12:32:47;;;;;;;4.03;1.70;;;28.10;1.00;;;;;;5087874;28;20054;-58
2022/08/11 12:35:14;;;;;;;2.00;1.17;;;28.10;1.00;;;;;;5071621;28;20058;-57
2022/08/11 12:37:45;;;;;;;1.23;1.13;;;28.20;1.00;;;;;;5086157;28;20561;-54
2022/08/11 12:45:59;;;;;;;1.48;1.38;;;28.20;1.00;;;;;;5067206;28;20047;-57
2022/08/11 12:54:15;;;;;;;2.83;1.30;;;28.30;1.00;;;;;;5067464;28;20071;-58
2022/08/11 13:05:10;;;;;;;5.65;1.45;;;28.00;1.00;;;;;;5060400;28;20039;-58
2022/08/11 13:07:38;;;;;;;1.23;1.10;;;28.00;1.00;;;;;;5047029;28;20033;-57
2022/08/11 13:10:07;;;;;;;3.10;1.20;;;28.00;1.00;;;;;;5077676;28;20047;-57
2022/08/11 13:12:48;;;;;;;3.10;1.48;;;28.00;1.00;;;;;;5087074;28;20336;-57
2022/08/11 13:15:22;;;;;;;3.00;1.30;;;28.00;1.00;;;;;;5052493;28;20020;-57
2022/08/11 13:17:50;;;;;;;1.92;1.30;;;28.00;1.00;;;;;;5066888;28;20016;-58
2022/08/11 13:20:22;;;;;;;4.18;1.10;;;27.90;1.00;;;;;;5080254;28;20073;-59
2022/08/11 13:22:54;;;;;;;2.45;1.13;;;27.90;1.00;;;;;;5072657;28;20035;-56
2022/08/11 13:25:22;;;;;;;1.42;1.10;;;27.90;1.00;;;;;;5068267;28;20043;-58
2022/08/11 13:27:49;;;;;;;2.80;1.20;;;28.00;1.00;;;;;;5083146;28;20465;-57
2022/08/11 13:33:03;;;;;;;1.92;1.20;;;28.00;1.00;;;;;;5066696;28;20062;-57
2022/08/11 13:35:31;;;;;;;2.35;1.20;;;28.00;1.00;;;;;;5084336;28;20020;-57
2022/08/11 13:38:00;;;;;;;2.00;1.00;;;27.90;1.00;;;;;;5086554;28;20111;-57
2022/08/11 13:40:27;;;;;;;0.90;0.73;;;27.90;1.00;;;;;;5070250;28;20024;-58
2022/08/11 13:42:53;;;;;;;3.08;1.02;;;28.00;1.00;;;;;;5085815;28;20487;-58
2022/08/11 13:45:22;;;;;;;1.33;1.15;;;28.00;1.00;;;;;;5069289;28;20055;-58
2022/08/11 13:47:48;;;;;;;2.03;0.95;;;28.00;1.00;;;;;;5085523;28;20035;-58
2022/08/11 13:50:15;;;;;;;1.13;1.00;;;28.00;1.00;;;;;;5062578;28;20070;-58
2022/08/11 13:52:41;;;;;;;2.45;1.10;;;27.90;1.00;;;;;;5065447;28;20028;-57
2022/08/11 13:55:10;;;;;;;2.88;1.17;;;28.00;1.00;;;;;;5084228;28;20032;-57
2022/08/11 13:57:36;;;;;;;0.88;0.75;;;28.00;1.00;;;;;;5086872;28;20030;-57
2022/08/11 14:00:08;;;;;;;1.80;1.10;;;28.00;1.00;;;;;;5066384;28;20484;-57
2022/08/11 14:02:38;;;;;;;1.08;0.90;;;28.00;1.00;;;;;;5073211;28;20400;-58
2022/08/11 14:05:12;;;;;;;5.28;0.90;;;28.10;1.00;;;;;;5082987;28;20028;-57
2022/08/11 14:07:42;;;;;;;1.42;0.90;;;28.00;1.00;;;;;;5086747;28;20030;-57
2022/08/11 14:10:11;;;;;;;2.97;1.00;;;28.00;1.00;;;;;;5064310;28;20510;-55
2022/08/11 14:15:29;;;;;;;1.15;1.00;;;28.00;1.00;;;;;;5069607;28;20108;-57
2022/08/11 14:18:12;;;;;;;1.88;1.08;;;28.00;1.00;;;;;;5087579;28;20644;-57
2022/08/11 14:23:33;;;;;;;1.17;1.08;;;28.00;1.00;;;;;;5089086;28;20038;-56
2022/08/11 14:28:44;;;;;;;1.23;1.13;;;28.00;1.00;;;;;;5048737;28;20078;-56
2022/08/11 14:31:13;;;;;;;2.47;1.20;;;27.90;1.00;;;;;;5084661;28;20051;-55
2022/08/11 14:33:39;;;;;;;0.85;0.85;;;27.90;1.00;;;;;;5069003;28;20102;-57
2022/08/11 14:36:07;;;;;;;1.10;0.95;;;27.90;1.00;;;;;;5090028;28;20024;-52
2022/08/11 14:38:34;;;;;;;1.80;1.00;;;28.00;1.00;;;;;;5070775;28;20056;-69
2022/08/11 14:49:18;;;;;;;1.23;0.90;;;27.90;1.00;;;;;;5051636;28;20846;-50
2022/08/11 14:51:46;;;;;;;1.38;0.95;;;27.90;1.00;;;;;;5072034;28;20021;-47
2022/08/11 14:56:56;;;;;;;2.65;0.90;;;27.80;1.00;;;;;;5066137;28;20143;-48
2022/08/11 14:59:22;;;;;;;1.67;0.93;;;27.80;1.00;;;;;;5091710;28;20122;-53
2022/08/11 15:04:33;;;;;;;1.45;0.93;;;27.80;1.00;;;;;;5051901;28;20024;-48
2022/08/11 15:06:58;;;;;;;2.80;1.08;;;27.70;1.00;;;;;;5073135;28;20448;-48
2022/08/11 15:09:24;;;;;;;3.03;1.10;;;27.80;1.00;;;;;;5091046;28;20066;-50
2022/08/11 15:12:08;;;;;;;1.08;0.98;;;27.80;1.00;;;;;;5070458;28;20028;-50
2022/08/11 15:17:21;;;;;;;0.95;0.85;;;27.80;1.00;;;;;;5067909;28;20082;-51
2022/08/11 15:25:18;;;;;;;2.05;1.20;;;27.70;1.00;;;;;;5059753;28;20185;-49
2022/08/11 15:39:00;;;;;;;0.98;0.82;;;27.60;1.00;;;;;;5070043;28;20035;-53
2022/08/11 15:47:13;;;;;;;;;;;27.60;1.00;;;;;;5069166;28;19915;-50
2022/08/11 15:49:43;;;;;;;5.47;1.13;;;27.70;1.00;;;;;;5087857;28;20257;-49
2022/08/11 15:52:16;;;;;;;1.02;0.90;;;27.60;1.00;;;;;;5062574;28;20025;-46
2022/08/11 15:54:45;;;;;;;2.30;1.00;;;27.60;1.00;;;;;;5049763;28;20108;-50
2022/08/11 16:04:09;;;;;;;2.42;1.30;;;27.70;1.00;;;;;;5071775;28;20025;-50
2022/08/11 16:05:21;;;;;;;1.00;0.90;;;27.60;1.00;;;;;;5066475;28;20076;-51
2022/08/11 16:07:49;;;;;;;2.58;1.15;;;27.60;1.00;;;;;;5089998;28;20097;-53
2022/08/11 16:10:20;;;;;;;2.03;1.30;;;27.60;1.00;;;;;;5070077;28;20631;-47
2022/08/11 16:18:23;;;;;;;3.25;1.40;;;27.60;1.00;;;;;;5089687;28;20042;-48
2022/08/11 16:20:54;;;;;;;0.93;0.88;;;27.60;1.00;;;;;;5071607;28;20047;-48
2022/08/11 16:23:25;;;;;;;2.22;1.05;;;27.60;1.00;;;;;;5089840;28;20408;-52
2022/08/11 16:25:52;;;;;;;1.77;1.13;;;27.50;1.00;;;;;;5071717;28;20458;-52
2022/08/11 16:28:19;;;;;;;2.35;0.88;;;27.50;1.00;;;;;;5090041;28;20020;-51
2022/08/11 16:30:45;;;;;;;1.05;0.93;;;27.40;1.00;;;;;;5070931;28;20044;-49
2022/08/11 16:33:11;;;;;;;1.20;1.10;;;27.40;1.00;;;;;;5088751;28;20054;-50
2022/08/11 16:38:34;;;;;;;1.58;1.17;;;27.30;1.00;;;;;;5089657;28;20077;-49
2022/08/11 16:41:02;;;;;;;2.22;0.88;;;27.30;1.00;;;;;;5057520;28;20461;-49
2022/08/11 16:49:10;;;;;;;3.53;1.10;;;27.10;1.00;;;;;;5089662;28;20027;-48
2022/08/11 16:51:36;;;;;;;3.28;1.10;;;27.00;1.00;;;;;;5066556;28;20458;-47
2022/08/11 16:54:02;;;;;;;2.35;1.10;;;26.90;1.00;;;;;;5069349;28;20032;-51
2022/08/11 16:56:36;;;;;;;1.02;0.93;;;26.80;1.00;;;;;;5085998;28;20040;-51
2022/08/11 16:59:13;;;;;;;2.30;1.58;;;26.80;1.00;;;;;;5049055;28;20447;-48
2022/08/11 17:01:40;;;;;;;2.17;1.00;;;26.70;1.00;;;;;;5066551;28;20545;-49
2022/08/11 17:18:09;;;;;;;2.05;1.02;;;26.30;1.00;;;;;;5048583;28;20083;-47
2022/08/11 17:20:37;;;;;;;2.50;1.15;;;26.20;1.00;;;;;;5086066;28;20138;-48
2022/08/11 17:25:51;;;;;;;1.25;1.05;;;26.10;1.00;;;;;;5051322;28;20082;-49
2022/08/11 17:28:18;;;;;;;1.00;0.90;;;26.00;1.00;;;;;;5088388;28;20517;-49
2022/08/11 17:36:18;;;;;;;1.23;0.93;;;25.90;1.00;;;;;;5057757;28;20038;-49
2022/08/11 17:38:47;;;;;;;1.25;1.15;;;25.70;1.00;;;;;;5088532;28;20112;-54
2022/08/11 17:49:36;;;;;;;1.35;1.08;;;25.50;1.00;;;;;;5048694;28;20120;-55
2022/08/11 18:00:21;;;;;;;2.60;1.10;;;25.10;1.00;;;;;;5068289;28;20586;-54
2022/08/11 18:05:36;;;;;;;4.13;1.07;;;24.90;1.00;;;;;;5048607;28;20047;-52
